createdAt,value
2023-03-13T00:00:12.762Z,5.07
2023-03-13T00:02:36.063Z,4.25
2023-03-13T00:04:59.373Z,4.47
2023-03-13T00:07:24.481Z,5.50
2023-03-13T00:09:47.755Z,4.47
2023-03-13T00:12:11.254Z,4.50
2023-03-13T00:14:34.600Z,4.22
2023-03-13T00:16:59.301Z,4.43
2023-03-13T00:19:22.679Z,4.85
2023-03-13T00:21:46.115Z,4.22
2023-03-13T00:24:12.682Z,4.03
2023-03-13T00:26:36.140Z,5.50
2023-03-13T00:28:59.727Z,4.65
2023-03-13T00:31:25.733Z,4.55
2023-03-13T00:33:51.952Z,4.90
2023-03-13T00:36:20.584Z,4.40
2023-03-13T00:38:44.485Z,4.50
2023-03-13T00:41:12.340Z,4.53
2023-03-13T00:43:36.300Z,4.15
2023-03-13T00:45:59.951Z,4.32
2023-03-13T00:48:23.742Z,5.00
2023-03-13T00:50:47.085Z,4.97
2023-03-13T00:53:11.320Z,5.28
2023-03-13T00:55:34.808Z,5.07
2023-03-13T00:57:59.365Z,5.22
2023-03-13T01:00:23.453Z,4.50
2023-03-13T01:02:48.514Z,4.10
2023-03-13T01:05:13.333Z,5.57
2023-03-13T01:07:36.703Z,4.40
2023-03-13T01:09:59.925Z,4.10
2023-03-13T01:12:23.190Z,4.80
2023-03-13T01:14:50.952Z,5.43
2023-03-13T01:17:14.202Z,4.13
2023-03-13T01:19:37.620Z,4.32
2023-03-13T01:22:00.945Z,4.32
2023-03-13T01:24:24.655Z,5.03
2023-03-13T01:26:48.332Z,4.68
2023-03-13T01:29:12.452Z,5.30
2023-03-13T01:31:38.150Z,4.40
2023-03-13T01:34:06.633Z,4.05
2023-03-13T01:36:30.641Z,4.18
2023-03-13T01:38:55.707Z,4.10
2023-03-13T01:41:20.747Z,4.57
2023-03-13T01:43:46.824Z,4.63
2023-03-13T01:46:16.462Z,5.10
2023-03-13T01:49:07.717Z,5.03
2023-03-13T01:51:42.731Z,4.57
2023-03-13T01:54:11.888Z,4.10
2023-03-13T01:56:41.321Z,4.32
2023-03-13T01:59:06.631Z,4.15
2023-03-13T02:01:30.955Z,4.13
2023-03-13T02:03:55.227Z,3.85
2023-03-13T02:06:20.224Z,4.57
2023-03-13T02:08:49.199Z,4.38
2023-03-13T02:11:24.937Z,4.55
2023-03-13T02:13:50.102Z,4.18
2023-03-13T02:16:13.620Z,4.50
2023-03-13T02:18:38.877Z,4.25
2023-03-13T02:21:12.798Z,3.92
2023-03-13T02:23:45.989Z,3.60
2023-03-13T02:26:10.866Z,3.97
2023-03-13T02:28:39.108Z,4.07
2023-03-13T02:31:07.706Z,3.72
2023-03-13T02:33:37.313Z,3.63
2023-03-13T02:36:03.169Z,4.07
2023-03-13T02:38:31.284Z,3.55
2023-03-13T02:40:56.810Z,3.85
2023-03-13T02:43:27.165Z,2.97
2023-03-13T02:46:08.796Z,3.45
2023-03-13T02:48:39.905Z,3.50
2023-03-13T02:51:07.119Z,3.30
2023-03-13T02:53:30.924Z,3.00
2023-03-13T02:55:54.781Z,3.13
2023-03-13T02:58:18.126Z,3.17
2023-03-13T03:00:42.890Z,2.63
2023-03-13T03:03:06.243Z,2.90
2023-03-13T03:05:30.011Z,3.15
2023-03-13T03:07:54.430Z,2.40
2023-03-13T03:10:18.869Z,2.42
2023-03-13T03:12:42.429Z,2.47
2023-03-13T03:15:06.748Z,2.38
2023-03-13T03:17:33.772Z,1.80
2023-03-13T03:19:57.099Z,2.33
2023-03-13T03:22:20.448Z,2.15
2023-03-13T03:24:43.792Z,2.00
2023-03-13T03:27:07.320Z,2.50
2023-03-13T03:29:36.917Z,2.00
2023-03-13T03:32:00.853Z,2.05
2023-03-13T03:34:26.036Z,1.80
2023-03-13T03:36:49.879Z,2.00
2023-03-13T03:39:13.404Z,2.40
2023-03-13T03:41:37.429Z,2.15
2023-03-13T03:44:01.652Z,1.63
2023-03-13T03:46:35.172Z,2.10
2023-03-13T03:48:58.683Z,1.67
2023-03-13T03:51:23.761Z,2.15
2023-03-13T03:53:47.254Z,2.05
2023-03-13T03:56:10.786Z,1.60
2023-03-13T03:58:39.306Z,1.67
2023-03-13T04:01:25.558Z,2.00
2023-03-13T04:03:49.165Z,1.80
2023-03-13T04:06:12.848Z,1.50
2023-03-13T04:08:38.024Z,1.80
2023-03-13T04:11:02.731Z,1.98
2023-03-13T04:13:30.210Z,1.67
2023-03-13T04:15:56.590Z,1.83
2023-03-13T04:18:20.813Z,1.90
2023-03-13T04:20:44.432Z,1.50
2023-03-13T04:23:08.334Z,1.58
2023-03-13T04:25:33.092Z,1.60
2023-03-13T04:27:57.918Z,1.60
2023-03-13T04:30:25.733Z,1.90
2023-03-13T04:33:04.470Z,1.83
2023-03-13T04:36:00.406Z,1.50
2023-03-13T04:38:48.156Z,1.73
2023-03-13T04:41:39.137Z,1.50
2023-03-13T04:44:10.960Z,2.22
2023-03-13T04:47:12.555Z,1.98
2023-03-13T04:49:59.093Z,2.00
2023-03-13T04:52:42.617Z,1.80
2023-03-13T04:55:07.069Z,2.00
2023-03-13T04:58:03.817Z,2.10
2023-03-13T05:00:55.004Z,2.35
2023-03-13T05:03:25.618Z,2.25
2023-03-13T05:06:00.808Z,2.30
2023-03-13T05:08:39.518Z,2.63
2023-03-13T05:11:19.559Z,2.50
2023-03-13T05:14:02.583Z,3.42
2023-03-13T05:16:46.436Z,2.80
2023-03-13T05:19:25.628Z,2.83
2023-03-13T05:22:08.855Z,2.85
2023-03-13T05:24:50.647Z,2.72
2023-03-13T05:27:52.576Z,2.95
2023-03-13T05:30:49.539Z,2.40
2023-03-13T05:33:47.634Z,2.92
2023-03-13T05:36:23.660Z,2.90
2023-03-13T05:39:09.898Z,2.60
2023-03-13T05:41:45.221Z,2.90
2023-03-13T05:44:23.692Z,2.70
2023-03-13T05:46:58.545Z,2.60
2023-03-13T05:49:34.308Z,2.42
2023-03-13T05:52:23.910Z,2.55
2023-03-13T05:55:06.906Z,2.72
2023-03-13T05:57:46.762Z,3.38
2023-03-13T06:00:29.396Z,3.05
2023-03-13T06:03:08.626Z,3.13
2023-03-13T06:05:37.126Z,3.00
2023-03-13T06:08:04.923Z,2.85
2023-03-13T06:10:28.245Z,2.92
2023-03-13T06:12:55.503Z,2.90
2023-03-13T06:15:21.683Z,2.40
2023-03-13T06:17:53.126Z,2.30
2023-03-13T06:20:18.502Z,2.45
2023-03-13T06:22:42.670Z,2.70
2023-03-13T06:25:07.532Z,2.55
2023-03-13T06:27:30.968Z,2.60
2023-03-13T06:29:54.292Z,2.65
2023-03-13T06:32:17.629Z,2.40
2023-03-13T06:34:41.151Z,2.10
2023-03-13T06:37:06.112Z,2.00
2023-03-13T06:39:29.858Z,2.30
2023-03-13T06:41:53.410Z,2.25
2023-03-13T06:44:16.764Z,2.33
2023-03-13T06:46:40.202Z,2.10
2023-03-13T06:49:05.866Z,2.15
2023-03-13T06:51:29.216Z,2.55
2023-03-13T06:53:54.136Z,2.20
2023-03-13T06:56:17.447Z,2.55
2023-03-13T06:58:40.841Z,2.22
2023-03-13T07:01:09.153Z,1.95
2023-03-13T07:03:32.494Z,2.75
2023-03-13T07:05:58.132Z,2.45
2023-03-13T07:08:21.497Z,2.20
2023-03-13T07:10:48.609Z,2.38
2023-03-13T07:13:11.914Z,2.50
2023-03-13T07:15:35.336Z,2.40
2023-03-13T07:17:59.628Z,2.35
2023-03-13T07:20:23.009Z,2.75
2023-03-13T07:22:46.447Z,2.40
2023-03-13T07:25:11.326Z,2.75
2023-03-13T07:27:39.008Z,2.55
2023-03-13T07:30:02.789Z,2.00
2023-03-13T07:32:26.188Z,2.20
2023-03-13T07:34:49.881Z,2.55
2023-03-13T07:37:13.601Z,2.40
2023-03-13T07:39:37.021Z,2.45
2023-03-13T07:42:00.365Z,2.28
2023-03-13T07:44:25.324Z,2.35
2023-03-13T07:46:50.126Z,2.70
2023-03-13T07:49:13.516Z,2.30
2023-03-13T07:51:43.514Z,2.50
2023-03-13T07:54:07.785Z,2.58
2023-03-13T07:56:31.880Z,2.17
2023-03-13T07:58:55.212Z,2.80
2023-03-13T08:01:25.542Z,2.60
2023-03-13T08:03:50.732Z,2.55
2023-03-13T08:06:17.016Z,2.75
2023-03-13T08:08:40.974Z,2.80
2023-03-13T08:11:06.534Z,2.72
2023-03-13T08:13:30.430Z,2.70
2023-03-13T08:15:53.679Z,2.90
2023-03-13T08:18:18.296Z,2.88
2023-03-13T08:20:41.891Z,2.58
2023-03-13T08:23:05.762Z,2.25
2023-03-13T08:25:29.079Z,2.90
2023-03-13T08:27:52.607Z,2.80
2023-03-13T08:30:16.811Z,2.90
2023-03-13T08:32:40.217Z,3.20
2023-03-13T08:35:05.796Z,3.15
2023-03-13T08:37:29.025Z,2.63
2023-03-13T08:39:54.218Z,2.90
2023-03-13T08:42:17.549Z,3.22
2023-03-13T08:44:40.879Z,2.90
2023-03-13T08:47:06.951Z,2.72
2023-03-13T08:49:30.884Z,3.28
2023-03-13T08:51:56.309Z,2.90
2023-03-13T08:54:19.690Z,2.80
2023-03-13T08:56:43.638Z,3.20
2023-03-13T08:59:07.597Z,2.90
2023-03-13T09:01:33.290Z,3.20
2023-03-13T09:03:57.861Z,2.78
2023-03-13T09:06:21.603Z,3.35
2023-03-13T09:08:46.832Z,2.85
2023-03-13T09:11:12.601Z,3.22
2023-03-13T09:13:38.942Z,2.97
2023-03-13T09:16:04.488Z,3.00
2023-03-13T09:18:28.899Z,2.85
2023-03-13T09:20:52.888Z,2.78
2023-03-13T09:23:16.161Z,3.05
2023-03-13T09:25:41.090Z,2.75
2023-03-13T09:28:04.508Z,3.00
2023-03-13T09:30:27.831Z,2.70
2023-03-13T09:32:51.196Z,2.72
2023-03-13T09:35:14.476Z,3.30
2023-03-13T09:37:37.723Z,2.83
2023-03-13T09:40:01.072Z,3.00
2023-03-13T09:42:35.868Z,2.60
2023-03-13T09:45:04.215Z,2.70
2023-03-13T09:47:35.606Z,3.05
2023-03-13T09:50:04.789Z,3.08
2023-03-13T09:52:33.013Z,2.80
2023-03-13T09:55:00.851Z,3.13
2023-03-13T09:57:35.548Z,2.55
2023-03-13T10:00:02.239Z,3.10
2023-03-13T10:02:33.597Z,2.88
2023-03-13T10:05:06.621Z,2.65
2023-03-13T10:07:29.991Z,2.28
2023-03-13T10:09:53.786Z,2.38
2023-03-13T10:12:21.983Z,2.50
2023-03-13T10:14:58.570Z,2.78
2023-03-13T10:17:33.200Z,2.58
2023-03-13T10:20:02.004Z,2.10
2023-03-13T10:22:30.109Z,2.50
2023-03-13T10:24:58.025Z,2.10
2023-03-13T10:27:21.307Z,2.30
2023-03-13T10:29:46.141Z,2.08
2023-03-13T10:32:14.189Z,1.83
2023-03-13T10:34:51.305Z,1.90
2023-03-13T10:37:17.364Z,2.20
2023-03-13T10:39:40.710Z,1.90
2023-03-13T10:42:12.804Z,2.30
2023-03-13T10:44:36.112Z,1.60
2023-03-13T10:47:03.900Z,1.85
2023-03-13T10:49:27.273Z,1.85
2023-03-13T10:51:53.122Z,1.88
2023-03-13T10:54:23.570Z,1.98
2023-03-13T10:56:46.831Z,1.60
2023-03-13T10:59:22.987Z,1.70
2023-03-13T11:01:46.446Z,1.67
2023-03-13T11:04:30.672Z,1.73
2023-03-13T11:07:00.141Z,1.65
2023-03-13T11:09:24.396Z,2.25
2023-03-13T11:11:50.965Z,1.85
2023-03-13T11:14:20.385Z,1.65
2023-03-13T11:16:49.436Z,1.63
2023-03-13T11:19:55.156Z,1.27
2023-03-13T11:22:38.781Z,1.58
2023-03-13T11:25:21.633Z,1.30
2023-03-13T11:27:54.649Z,1.25
2023-03-13T11:30:40.302Z,1.25
2023-03-13T11:33:07.093Z,1.40
2023-03-13T11:35:41.904Z,1.08
2023-03-13T11:38:16.796Z,1.23
2023-03-13T11:40:48.556Z,1.10
2023-03-13T11:43:33.638Z,1.30
2023-03-13T11:46:24.417Z,0.90
2023-03-13T11:49:30.817Z,1.08
2023-03-13T11:52:08.199Z,1.25
2023-03-13T11:55:02.087Z,1.10
2023-03-13T11:57:30.867Z,1.10
2023-03-13T12:00:17.770Z,1.20
2023-03-13T12:02:47.874Z,0.90
2023-03-13T12:05:16.484Z,1.00
2023-03-13T12:07:45.512Z,0.95
2023-03-13T12:10:16.100Z,1.15
2023-03-13T12:12:45.555Z,1.15
2023-03-13T12:15:21.771Z,1.00
2023-03-13T12:17:52.457Z,1.10
2023-03-13T12:20:24.545Z,1.15
2023-03-13T12:22:58.221Z,1.20
2023-03-13T12:25:26.117Z,1.38
2023-03-13T12:27:53.485Z,1.10
2023-03-13T12:30:29.089Z,0.95
2023-03-13T12:33:02.236Z,1.10
2023-03-13T12:35:29.837Z,1.20
2023-03-13T12:38:03.968Z,0.90
2023-03-13T12:40:33.642Z,0.80
2023-03-13T12:43:02.998Z,0.88
2023-03-13T12:45:29.416Z,1.05
2023-03-13T12:48:24.442Z,1.02
2023-03-13T12:51:09.825Z,1.00
2023-03-13T12:54:08.718Z,0.93
2023-03-13T12:56:55.817Z,1.10
2023-03-13T12:59:23.361Z,0.82
2023-03-13T13:01:51.836Z,0.90
2023-03-13T13:04:18.427Z,0.80
2023-03-13T13:06:59.450Z,0.70
2023-03-13T13:09:26.613Z,0.90
2023-03-13T13:11:52.338Z,1.27
2023-03-13T13:15:04.023Z,1.05
2023-03-13T13:17:58.751Z,0.95
2023-03-13T13:20:46.205Z,1.00
2023-03-13T13:23:34.673Z,0.70
2023-03-13T13:26:50.832Z,0.90
2023-03-13T13:30:00.222Z,1.10
2023-03-13T13:32:46.386Z,1.15
2023-03-13T13:35:32.757Z,1.10
2023-03-13T13:38:34.416Z,0.95
2023-03-13T13:41:05.410Z,0.90
2023-03-13T13:43:34.454Z,0.93
2023-03-13T13:46:06.003Z,0.85
2023-03-13T13:48:34.182Z,1.08
2023-03-13T13:51:26.114Z,1.00
2023-03-13T13:53:52.972Z,0.98
2023-03-13T13:56:42.783Z,0.90
2023-03-13T13:59:40.298Z,1.20
2023-03-13T14:02:26.485Z,1.00
2023-03-13T14:04:58.336Z,1.02
2023-03-13T14:07:31.108Z,0.98
2023-03-13T14:10:04.883Z,1.20
2023-03-13T14:12:30.979Z,1.00
2023-03-13T14:15:14.601Z,1.10
2023-03-13T14:17:44.099Z,1.55
2023-03-13T14:20:21.244Z,1.23
2023-03-13T14:22:48.240Z,1.02
2023-03-13T14:25:12.222Z,1.40
2023-03-13T14:27:35.512Z,1.20
2023-03-13T14:30:02.538Z,1.13
2023-03-13T14:32:29.314Z,1.10
2023-03-13T14:34:52.640Z,1.08
2023-03-13T14:37:36.745Z,1.30
2023-03-13T14:40:09.945Z,1.15
2023-03-13T14:42:40.633Z,1.40
2023-03-13T14:45:14.904Z,1.10
2023-03-13T14:47:39.826Z,1.17
2023-03-13T14:50:06.719Z,1.10
2023-03-13T14:52:32.428Z,1.40
2023-03-13T14:54:58.514Z,1.40
2023-03-13T14:57:26.893Z,1.00
2023-03-13T14:59:51.524Z,1.20
2023-03-13T15:02:21.513Z,1.00
2023-03-13T15:04:59.665Z,0.93
2023-03-13T15:07:24.533Z,1.10
2023-03-13T15:09:50.628Z,1.00
2023-03-13T15:12:16.825Z,1.10
2023-03-13T15:14:42.803Z,1.15
2023-03-13T15:17:16.774Z,1.33
2023-03-13T15:19:40.165Z,1.30
2023-03-13T15:22:04.817Z,1.25
2023-03-13T15:24:28.084Z,0.93
2023-03-13T15:26:51.434Z,1.00
2023-03-13T15:29:14.861Z,1.30
2023-03-13T15:31:39.689Z,1.15
2023-03-13T15:34:03.175Z,1.30
2023-03-13T15:36:27.315Z,1.00
2023-03-13T15:38:52.749Z,1.30
2023-03-13T15:41:16.267Z,1.20
2023-03-13T15:43:39.649Z,1.27
2023-03-13T15:46:05.631Z,1.38
2023-03-13T15:48:31.535Z,1.63
2023-03-13T15:50:59.980Z,1.25
2023-03-13T15:53:26.034Z,1.20
2023-03-13T15:55:51.398Z,1.23
2023-03-13T15:58:14.742Z,1.40
2023-03-13T16:00:38.091Z,1.17
2023-03-13T16:03:01.617Z,1.35
2023-03-13T16:05:24.922Z,1.30
2023-03-13T16:07:48.377Z,1.48
2023-03-13T16:10:20.047Z,1.40
2023-03-13T16:12:44.688Z,1.42
2023-03-13T16:15:10.836Z,1.77
2023-03-13T16:17:34.138Z,1.60
2023-03-13T16:19:57.574Z,1.50
2023-03-13T16:22:21.037Z,1.50
2023-03-13T16:24:44.367Z,1.50
2023-03-13T16:27:15.096Z,1.55
2023-03-13T16:29:39.804Z,2.00
2023-03-13T16:32:03.314Z,1.60
2023-03-13T16:34:27.207Z,1.45
2023-03-13T16:36:50.601Z,1.58
2023-03-13T16:39:16.658Z,1.50
2023-03-13T16:41:39.971Z,1.52
2023-03-13T16:44:03.680Z,1.88
2023-03-13T16:46:36.272Z,1.95
2023-03-13T16:48:59.829Z,2.10
2023-03-13T16:51:25.197Z,1.80
2023-03-13T16:53:51.008Z,2.15
2023-03-13T16:56:28.287Z,1.77
2023-03-13T16:58:52.143Z,2.15
2023-03-13T17:01:15.497Z,1.70
2023-03-13T17:03:40.199Z,1.70
2023-03-13T17:06:03.858Z,1.90
2023-03-13T17:08:27.321Z,1.70
2023-03-13T17:10:50.507Z,2.20
2023-03-13T17:13:13.713Z,1.92
2023-03-13T17:15:37.182Z,1.70
2023-03-13T17:18:00.662Z,1.98
2023-03-13T17:20:28.050Z,2.00
2023-03-13T17:22:51.465Z,1.80
2023-03-13T17:25:15.324Z,2.20
2023-03-13T17:27:39.172Z,1.80
2023-03-13T17:30:02.422Z,1.80
2023-03-13T17:32:26.142Z,2.22
2023-03-13T17:34:49.497Z,2.10
2023-03-13T17:37:18.451Z,2.25
2023-03-13T17:39:43.275Z,2.08
2023-03-13T17:42:06.703Z,1.70
2023-03-13T17:44:29.997Z,1.80
2023-03-13T17:46:53.813Z,2.22
2023-03-13T17:49:20.345Z,2.00
2023-03-13T17:51:47.608Z,2.00
2023-03-13T17:54:14.513Z,1.90
2023-03-13T17:56:41.458Z,2.55
2023-03-13T17:59:04.878Z,2.10
2023-03-13T18:01:31.167Z,2.22
2023-03-13T18:03:55.241Z,2.28
2023-03-13T18:06:22.763Z,1.70
2023-03-13T18:08:46.011Z,1.90
2023-03-13T18:11:12.581Z,2.20
2023-03-13T18:13:36.985Z,2.22
2023-03-13T18:16:01.409Z,2.10
2023-03-13T18:18:24.736Z,1.95
2023-03-13T18:20:48.052Z,2.50
2023-03-13T18:23:11.367Z,1.90
2023-03-13T18:25:35.274Z,2.00
2023-03-13T18:28:00.303Z,2.05
2023-03-13T18:30:26.737Z,2.30
2023-03-13T18:32:50.456Z,1.85
2023-03-13T18:35:14.730Z,2.42
2023-03-13T18:37:38.165Z,2.50
2023-03-13T18:40:02.062Z,2.05
2023-03-13T18:42:25.992Z,2.60
2023-03-13T18:44:50.928Z,2.25
2023-03-13T18:47:16.821Z,2.33
2023-03-13T18:49:40.188Z,2.10
2023-03-13T18:52:03.539Z,2.30
2023-03-13T18:54:26.995Z,2.00
2023-03-13T18:56:50.373Z,2.17
2023-03-13T18:59:15.603Z,2.10
2023-03-13T19:01:40.421Z,2.00
2023-03-13T19:04:03.778Z,2.80
2023-03-13T19:06:29.373Z,2.97
2023-03-13T19:08:54.983Z,2.10
2023-03-13T19:11:20.896Z,2.70
2023-03-13T19:13:44.524Z,2.33
2023-03-13T19:16:15.926Z,2.35
2023-03-13T19:18:40.662Z,2.75
2023-03-13T19:21:03.953Z,3.33
2023-03-13T19:23:27.301Z,2.85
2023-03-13T19:25:52.439Z,2.88
2023-03-13T19:28:16.243Z,2.10
2023-03-13T19:30:39.508Z,2.22
2023-03-13T19:33:02.924Z,2.65
2023-03-13T19:35:27.690Z,2.60
2023-03-13T19:37:51.167Z,2.33
2023-03-13T19:40:20.805Z,2.08
2023-03-13T19:42:44.732Z,2.40
2023-03-13T19:45:09.733Z,2.35
2023-03-13T19:47:33.081Z,2.25
2023-03-13T19:49:58.091Z,2.70
2023-03-13T19:52:23.493Z,2.28
2023-03-13T19:54:46.876Z,2.45
2023-03-13T19:57:12.058Z,2.42
2023-03-13T19:59:38.701Z,2.60
2023-03-13T20:02:04.307Z,3.15
2023-03-13T20:04:28.213Z,2.60
2023-03-13T20:06:51.521Z,2.80
2023-03-13T20:09:18.388Z,2.83
2023-03-13T20:11:42.207Z,2.88
2023-03-13T20:14:06.403Z,3.30
2023-03-13T20:16:33.619Z,2.72
2023-03-13T20:19:00.160Z,3.35
2023-03-13T20:21:24.646Z,2.90
2023-03-13T20:23:50.576Z,2.67
2023-03-13T20:26:17.554Z,2.40
2023-03-13T20:28:42.992Z,3.00
2023-03-13T20:31:07.794Z,3.17
2023-03-13T20:33:31.247Z,3.30
2023-03-13T20:35:58.762Z,2.70
2023-03-13T20:38:22.080Z,2.58
2023-03-13T20:40:53.148Z,2.53
2023-03-13T20:43:17.721Z,2.65
2023-03-13T20:45:40.964Z,2.80
2023-03-13T20:48:04.234Z,2.75
2023-03-13T20:50:27.906Z,3.15
2023-03-13T20:52:51.408Z,2.92
2023-03-13T20:55:14.824Z,3.00
2023-03-13T20:57:38.309Z,2.65
2023-03-13T21:00:03.945Z,2.85
2023-03-13T21:02:27.234Z,3.20
2023-03-13T21:04:50.499Z,2.63
2023-03-13T21:07:13.818Z,2.63
2023-03-13T21:09:37.077Z,2.75
2023-03-13T21:12:01.098Z,2.40
2023-03-13T21:14:24.451Z,3.15
2023-03-13T21:16:49.098Z,2.72
2023-03-13T21:19:12.369Z,2.90
2023-03-13T21:21:35.617Z,2.80
2023-03-13T21:23:58.899Z,2.78
2023-03-13T21:26:22.444Z,2.60
2023-03-13T21:28:51.048Z,2.92
2023-03-13T21:31:16.414Z,3.03
2023-03-13T21:33:42.300Z,2.97
2023-03-13T21:36:06.304Z,3.15
2023-03-13T21:38:29.661Z,2.25
2023-03-13T21:40:52.967Z,2.40
2023-03-13T21:43:16.269Z,2.60
2023-03-13T21:45:39.572Z,2.78
2023-03-13T21:48:02.949Z,3.00
2023-03-13T21:50:28.219Z,2.78
2023-03-13T21:52:51.649Z,3.00
2023-03-13T21:55:15.338Z,2.92
2023-03-13T21:57:38.700Z,3.00
2023-03-13T22:00:02.029Z,2.40
2023-03-13T22:02:30.734Z,2.80
2023-03-13T22:04:53.967Z,2.28
2023-03-13T22:07:18.667Z,2.60
2023-03-13T22:09:41.872Z,2.60
2023-03-13T22:12:05.610Z,2.28
2023-03-13T22:14:28.826Z,2.58
2023-03-13T22:16:52.234Z,2.20
2023-03-13T22:19:17.366Z,2.22
2023-03-13T22:21:40.784Z,2.38
2023-03-13T22:24:06.780Z,2.40
2023-03-13T22:26:31.168Z,2.33
2023-03-13T22:28:54.434Z,2.20
2023-03-13T22:31:18.538Z,2.50
2023-03-13T22:33:41.932Z,1.90
2023-03-13T22:36:06.380Z,2.42
2023-03-13T22:38:30.055Z,2.55
2023-03-13T22:41:01.610Z,2.42
2023-03-13T22:43:24.926Z,2.38
2023-03-13T22:45:48.923Z,2.45
2023-03-13T22:48:12.246Z,2.28
2023-03-13T22:50:35.810Z,2.53
2023-03-13T22:52:59.169Z,2.20
2023-03-13T22:55:22.419Z,2.35
2023-03-13T22:57:47.159Z,2.30
2023-03-13T23:00:12.529Z,2.35
2023-03-13T23:02:35.870Z,2.28
2023-03-13T23:05:01.142Z,2.20
2023-03-13T23:07:24.701Z,2.53
2023-03-13T23:09:47.960Z,2.30
2023-03-13T23:12:11.598Z,2.55
2023-03-13T23:14:36.320Z,2.30
2023-03-13T23:16:59.842Z,2.25
2023-03-13T23:19:23.162Z,2.42
2023-03-13T23:21:46.493Z,2.10
2023-03-13T23:24:10.167Z,1.83
2023-03-13T23:26:33.517Z,2.22
2023-03-13T23:28:56.866Z,2.20
2023-03-13T23:31:23.369Z,1.73
2023-03-13T23:33:47.311Z,2.58
2023-03-13T23:36:14.092Z,1.90
2023-03-13T23:38:37.678Z,2.28
2023-03-13T23:41:01.109Z,2.40
2023-03-13T23:43:24.438Z,2.13
2023-03-13T23:45:47.761Z,2.50
2023-03-13T23:48:12.409Z,1.90
2023-03-13T23:50:37.421Z,2.05
2023-03-13T23:53:00.702Z,1.77
2023-03-13T23:55:23.997Z,2.13
2023-03-13T23:57:50.386Z,1.85
